createdAt,value
2023-06-19T00:00:28.041Z,94686.00
2023-06-19T00:01:28.054Z,94686.00
2023-06-19T00:02:28.173Z,94688.00
2023-06-19T00:03:28.086Z,94692.00
2023-06-19T00:04:28.196Z,94692.00
2023-06-19T00:05:28.033Z,94690.00
2023-06-19T00:06:28.040Z,94692.00
2023-06-19T00:07:28.090Z,94692.00
2023-06-19T00:08:28.093Z,94694.00
2023-06-19T00:09:28.444Z,94694.00
2023-06-19T00:10:28.037Z,94692.00
2023-06-19T00:11:28.059Z,94692.00
2023-06-19T00:12:28.075Z,94692.00
2023-06-19T00:13:28.116Z,94694.00
2023-06-19T00:14:28.094Z,94698.00
2023-06-19T00:15:28.081Z,94702.00
2023-06-19T00:16:28.102Z,94704.00
2023-06-19T00:17:28.098Z,94706.00
2023-06-19T00:18:28.119Z,94708.00
2023-06-19T00:19:28.104Z,94710.00
2023-06-19T00:20:28.118Z,94710.00
2023-06-19T00:21:28.118Z,94712.00
2023-06-19T00:22:28.131Z,94712.00
2023-06-19T00:23:28.136Z,94712.00
2023-06-19T00:24:28.236Z,94714.00
2023-06-19T00:25:28.116Z,94712.00
2023-06-19T00:26:28.215Z,94712.00
2023-06-19T00:27:28.153Z,94712.00
2023-06-19T00:28:28.132Z,94710.00
2023-06-19T00:29:28.175Z,94710.00
2023-06-19T00:30:28.125Z,94708.00
2023-06-19T00:31:28.141Z,94708.00
2023-06-19T00:32:28.162Z,94706.00
2023-06-19T00:33:28.163Z,94706.00
2023-06-19T00:34:28.174Z,94708.00
2023-06-19T00:35:28.186Z,94706.00
2023-06-19T00:36:28.187Z,94704.00
2023-06-19T00:37:28.189Z,94704.00
2023-06-19T00:38:28.191Z,94706.00
2023-06-19T00:39:28.196Z,94710.00
2023-06-19T00:40:28.221Z,94712.00
2023-06-19T00:41:28.298Z,94712.00
2023-06-19T00:42:28.206Z,94712.00
2023-06-19T00:43:28.231Z,94714.00
2023-06-19T00:44:28.233Z,94710.00
2023-06-19T00:45:28.231Z,94710.00
2023-06-19T00:46:28.315Z,94710.00
2023-06-19T00:47:28.290Z,94708.00
2023-06-19T00:48:28.282Z,94710.00
2023-06-19T00:49:28.329Z,94708.00
2023-06-19T00:50:28.266Z,94712.00
2023-06-19T00:51:28.273Z,94710.00
2023-06-19T00:52:28.293Z,94708.00
2023-06-19T00:53:28.253Z,94708.00
2023-06-19T00:54:28.304Z,94712.00
2023-06-19T00:55:28.391Z,94710.00
2023-06-19T00:56:28.367Z,94708.00
2023-06-19T00:57:28.366Z,94712.00
2023-06-19T00:58:28.328Z,94714.00
2023-06-19T00:59:28.330Z,94714.00
2023-06-19T01:00:29.222Z,94714.00
2023-06-19T01:01:28.384Z,94714.00
2023-06-19T01:02:28.413Z,94712.00
2023-06-19T01:03:28.400Z,94712.00
2023-06-19T01:04:28.331Z,94712.00
2023-06-19T01:05:28.363Z,94716.00
2023-06-19T01:06:28.327Z,94720.00
2023-06-19T01:07:28.691Z,94721.00
2023-06-19T01:08:28.397Z,94723.00
2023-06-19T01:09:28.352Z,94723.00
2023-06-19T01:10:28.639Z,94723.00
2023-06-19T01:11:28.363Z,94725.00
2023-06-19T01:12:28.440Z,94725.00
2023-06-19T01:13:28.392Z,94721.00
2023-06-19T01:14:28.409Z,94725.00
2023-06-19T01:15:28.441Z,94727.00
2023-06-19T01:16:28.423Z,94729.00
2023-06-19T01:17:28.484Z,94727.00
2023-06-19T01:18:28.415Z,94729.00
2023-06-19T01:19:28.423Z,94725.00
2023-06-19T01:20:28.422Z,94727.00
2023-06-19T01:21:28.434Z,94727.00
2023-06-19T01:22:28.506Z,94729.00
2023-06-19T01:23:28.466Z,94729.00
2023-06-19T01:24:28.537Z,94725.00
2023-06-19T01:25:28.462Z,94725.00
2023-06-19T01:26:28.477Z,94718.00
2023-06-19T01:27:28.503Z,94720.00
2023-06-19T01:28:28.591Z,94714.00
2023-06-19T01:29:28.541Z,94714.00
2023-06-19T01:30:28.574Z,94712.00
2023-06-19T01:31:28.622Z,94710.00
2023-06-19T01:32:28.610Z,94708.00
2023-06-19T01:33:28.592Z,94708.00
2023-06-19T01:34:28.585Z,94710.00
2023-06-19T01:35:28.646Z,94710.00
2023-06-19T01:36:28.593Z,94712.00
2023-06-19T01:37:28.651Z,94708.00
2023-06-19T01:38:28.625Z,94710.00
2023-06-19T01:39:28.609Z,94710.00
2023-06-19T01:40:28.647Z,94714.00
2023-06-19T01:41:28.654Z,94720.00
2023-06-19T01:42:28.632Z,94723.00
2023-06-19T01:43:28.702Z,94723.00
2023-06-19T01:44:28.705Z,94723.00
2023-06-19T01:45:28.686Z,94725.00
2023-06-19T01:46:28.760Z,94725.00
2023-06-19T01:47:28.763Z,94725.00
2023-06-19T01:48:28.733Z,94721.00
2023-06-19T01:49:28.757Z,94725.00
2023-06-19T01:50:28.745Z,94725.00
2023-06-19T01:51:28.792Z,94725.00
2023-06-19T01:52:29.088Z,94725.00
2023-06-19T01:53:28.768Z,94725.00
2023-06-19T01:54:28.829Z,94725.00
2023-06-19T01:55:28.777Z,94727.00
2023-06-19T01:56:28.787Z,94727.00
2023-06-19T01:57:28.794Z,94725.00
2023-06-19T01:58:28.809Z,94731.00
2023-06-19T01:59:28.790Z,94731.00
2023-06-19T02:00:29.581Z,94731.00
2023-06-19T02:01:28.890Z,94733.00
2023-06-19T02:02:28.854Z,94731.00
2023-06-19T02:03:28.899Z,94731.00
2023-06-19T02:04:28.833Z,94733.00
2023-06-19T02:05:28.845Z,94729.00
2023-06-19T02:06:29.251Z,94729.00
2023-06-19T02:07:28.915Z,94729.00
2023-06-19T02:08:28.908Z,94731.00
2023-06-19T02:09:28.903Z,94731.00
2023-06-19T02:10:28.921Z,94729.00
2023-06-19T02:11:28.952Z,94727.00
2023-06-19T02:12:28.887Z,94729.00
2023-06-19T02:13:28.944Z,94729.00
2023-06-19T02:14:28.897Z,94729.00
2023-06-19T02:15:28.984Z,94727.00
2023-06-19T02:16:29.009Z,94731.00
2023-06-19T02:17:29.083Z,94729.00
2023-06-19T02:18:29.239Z,94733.00
2023-06-19T02:19:29.011Z,94735.00
2023-06-19T02:20:28.995Z,94737.00
2023-06-19T02:21:29.003Z,94739.00
2023-06-19T02:22:29.071Z,94737.00
2023-06-19T02:23:29.066Z,94733.00
2023-06-19T02:24:29.113Z,94739.00
2023-06-19T02:25:29.048Z,94743.00
2023-06-19T02:26:29.083Z,94739.00
2023-06-19T02:27:29.086Z,94737.00
2023-06-19T02:28:29.106Z,94737.00
2023-06-19T02:29:29.461Z,94741.00
2023-06-19T02:30:29.197Z,94743.00
2023-06-19T02:31:29.177Z,94745.00
2023-06-19T02:32:29.364Z,94745.00
2023-06-19T02:33:29.146Z,94743.00
2023-06-19T02:34:29.293Z,94741.00
2023-06-19T02:35:29.198Z,94741.00
2023-06-19T02:36:29.257Z,94743.00
2023-06-19T02:37:29.270Z,94741.00
2023-06-19T02:38:29.259Z,94743.00
2023-06-19T02:39:29.475Z,94739.00
2023-06-19T02:40:29.297Z,94751.00
2023-06-19T02:41:29.334Z,94747.00
2023-06-19T02:42:29.319Z,94747.00
2023-06-19T02:43:29.345Z,94745.00
2023-06-19T02:44:29.378Z,94745.00
2023-06-19T02:45:29.462Z,94743.00
2023-06-19T02:46:29.494Z,94745.00
2023-06-19T02:47:29.442Z,94745.00
2023-06-19T02:48:29.433Z,94749.00
2023-06-19T02:49:29.495Z,94751.00
2023-06-19T02:50:29.510Z,94753.00
2023-06-19T02:51:29.510Z,94751.00
2023-06-19T02:52:29.552Z,94753.00
2023-06-19T02:53:29.519Z,94759.00
2023-06-19T02:54:29.585Z,94757.00
2023-06-19T02:55:29.593Z,94757.00
2023-06-19T02:56:29.606Z,94755.00
2023-06-19T02:57:29.721Z,94755.00
2023-06-19T02:58:29.605Z,94759.00
2023-06-19T02:59:29.669Z,94759.00
2023-06-19T03:00:29.718Z,94761.00
2023-06-19T03:01:29.787Z,94761.00
2023-06-19T03:02:29.764Z,94759.00
2023-06-19T03:03:29.909Z,94767.00
2023-06-19T03:04:29.815Z,94765.00
2023-06-19T03:05:29.757Z,94765.00
2023-06-19T03:06:29.787Z,94767.00
2023-06-19T03:07:29.858Z,94765.00
2023-06-19T03:08:29.823Z,94767.00
2023-06-19T03:09:29.798Z,94767.00
2023-06-19T03:10:29.848Z,94767.00
2023-06-19T03:11:29.863Z,94767.00
2023-06-19T03:12:29.866Z,94767.00
2023-06-19T03:13:29.930Z,94765.00
2023-06-19T03:14:29.922Z,94767.00
2023-06-19T03:15:29.933Z,94770.00
2023-06-19T03:16:30.063Z,94776.00
2023-06-19T03:17:30.358Z,94778.00
2023-06-19T03:18:30.060Z,94778.00
2023-06-19T03:19:30.005Z,94776.00
2023-06-19T03:20:30.073Z,94778.00
2023-06-19T03:21:30.077Z,94778.00
2023-06-19T03:22:30.089Z,94776.00
2023-06-19T03:23:30.138Z,94780.00
2023-06-19T03:24:30.259Z,94782.00
2023-06-19T03:25:30.157Z,94782.00
2023-06-19T03:26:30.215Z,94780.00
2023-06-19T03:27:30.170Z,94784.00
2023-06-19T03:28:30.197Z,94782.00
2023-06-19T03:29:30.292Z,94780.00
2023-06-19T03:30:30.241Z,94782.00
2023-06-19T03:31:30.293Z,94780.00
2023-06-19T03:32:32.433Z,94782.00
2023-06-19T03:33:30.318Z,94784.00
2023-06-19T03:34:30.318Z,94786.00
2023-06-19T03:35:30.317Z,94788.00
2023-06-19T03:36:30.505Z,94788.00
2023-06-19T03:37:30.393Z,94788.00
2023-06-19T03:38:30.439Z,94790.00
2023-06-19T03:39:30.454Z,94790.00
2023-06-19T03:40:32.348Z,94792.00
2023-06-19T03:41:30.509Z,94788.00
2023-06-19T03:42:30.535Z,94788.00
2023-06-19T03:43:30.544Z,94790.00
2023-06-19T03:44:30.555Z,94788.00
2023-06-19T03:45:30.554Z,94790.00
2023-06-19T03:46:30.643Z,94788.00
2023-06-19T03:47:30.650Z,94786.00
2023-06-19T03:48:30.683Z,94788.00
2023-06-19T03:49:30.677Z,94788.00
2023-06-19T03:50:30.896Z,94790.00
2023-06-19T03:51:30.733Z,94790.00
2023-06-19T03:52:30.701Z,94794.00
2023-06-19T03:53:31.059Z,94796.00
2023-06-19T03:54:30.810Z,94794.00
2023-06-19T03:55:30.832Z,94796.00
2023-06-19T03:56:30.831Z,94792.00
2023-06-19T03:57:30.852Z,94794.00
2023-06-19T03:58:30.896Z,94796.00
2023-06-19T03:59:30.896Z,94796.00
2023-06-19T04:00:30.916Z,94796.00
2023-06-19T04:01:31.057Z,94796.00
2023-06-19T04:02:31.031Z,94794.00
2023-06-19T04:03:31.069Z,94796.00
2023-06-19T04:04:31.022Z,94794.00
2023-06-19T04:05:31.042Z,94796.00
2023-06-19T04:06:31.056Z,94794.00
2023-06-19T04:07:31.118Z,94792.00
2023-06-19T04:08:31.126Z,94792.00
2023-06-19T04:09:31.129Z,94798.00
2023-06-19T04:10:31.808Z,94800.00
2023-06-19T04:11:31.188Z,94796.00
2023-06-19T04:12:31.237Z,94796.00
2023-06-19T04:13:31.256Z,94796.00
2023-06-19T04:14:31.266Z,94796.00
2023-06-19T04:15:31.342Z,94796.00
2023-06-19T04:16:31.412Z,94792.00
2023-06-19T04:17:31.455Z,94798.00
2023-06-19T04:18:31.397Z,94796.00
2023-06-19T04:19:31.401Z,94798.00
2023-06-19T04:20:31.413Z,94796.00
2023-06-19T04:21:31.464Z,94794.00
2023-06-19T04:22:31.472Z,94796.00
2023-06-19T04:23:31.481Z,94796.00
2023-06-19T04:24:31.565Z,94796.00
2023-06-19T04:25:31.537Z,94794.00
2023-06-19T04:26:31.590Z,94796.00
2023-06-19T04:27:31.597Z,94794.00
2023-06-19T04:28:31.741Z,94796.00
2023-06-19T04:29:31.641Z,94794.00
2023-06-19T04:30:31.741Z,94796.00
2023-06-19T04:31:31.732Z,94798.00
2023-06-19T04:32:31.795Z,94800.00
2023-06-19T04:33:31.858Z,94798.00
2023-06-19T04:34:31.771Z,94798.00
2023-06-19T04:35:31.856Z,94796.00
2023-06-19T04:36:31.866Z,94794.00
2023-06-19T04:37:31.874Z,94792.00
2023-06-19T04:38:31.941Z,94792.00
2023-06-19T04:39:31.919Z,94790.00
2023-06-19T04:40:31.995Z,94788.00
2023-06-19T04:41:32.009Z,94792.00
2023-06-19T04:42:32.025Z,94794.00
2023-06-19T04:43:32.080Z,94788.00
2023-06-19T04:44:32.077Z,94798.00
2023-06-19T04:45:32.119Z,94798.00
2023-06-19T04:46:32.185Z,94794.00
2023-06-19T04:47:43.569Z,94794.00
2023-06-19T04:48:33.214Z,94792.00
2023-06-19T04:49:32.154Z,94792.00
2023-06-19T04:50:32.281Z,94788.00
2023-06-19T04:51:32.132Z,94790.00
2023-06-19T04:52:32.137Z,94792.00
2023-06-19T04:53:32.145Z,94794.00
2023-06-19T04:54:32.152Z,94794.00
2023-06-19T04:55:32.090Z,94792.00
2023-06-19T04:56:32.098Z,94794.00
2023-06-19T04:57:32.111Z,94792.00
2023-06-19T04:58:32.173Z,94792.00
2023-06-19T04:59:32.078Z,94794.00
2023-06-19T05:00:32.090Z,94794.00
2023-06-19T05:01:32.124Z,94796.00
2023-06-19T05:02:32.085Z,94798.00
2023-06-19T05:03:32.042Z,94796.00
2023-06-19T05:04:32.120Z,94800.00
2023-06-19T05:05:32.119Z,94802.00
2023-06-19T05:06:32.105Z,94802.00
2023-06-19T05:07:32.140Z,94800.00
2023-06-19T05:08:32.200Z,94800.00
2023-06-19T05:09:32.213Z,94800.00
2023-06-19T05:10:32.258Z,94796.00
2023-06-19T05:11:32.245Z,94798.00
2023-06-19T05:12:32.533Z,94798.00
2023-06-19T05:13:32.338Z,94802.00
2023-06-19T05:14:32.336Z,94804.00
2023-06-19T05:15:32.454Z,94802.00
2023-06-19T05:16:34.380Z,94806.00
2023-06-19T05:17:32.543Z,94808.00
2023-06-19T05:18:32.467Z,94810.00
2023-06-19T05:19:32.363Z,94810.00
2023-06-19T05:20:32.379Z,94812.00
2023-06-19T05:21:32.353Z,94814.00
2023-06-19T05:22:32.344Z,94814.00
2023-06-19T05:23:32.351Z,94814.00
2023-06-19T05:24:32.477Z,94810.00
2023-06-19T05:25:32.330Z,94810.00
2023-06-19T05:26:32.326Z,94810.00
2023-06-19T05:27:32.312Z,94810.00
2023-06-19T05:28:32.342Z,94810.00
2023-06-19T05:29:32.293Z,94817.00
2023-06-19T05:30:32.308Z,94819.00
2023-06-19T05:31:32.283Z,94817.00
2023-06-19T05:32:32.289Z,94823.00
2023-06-19T05:33:32.295Z,94827.00
2023-06-19T05:34:32.808Z,94825.00
2023-06-19T05:35:32.275Z,94823.00
2023-06-19T05:36:32.236Z,94827.00
2023-06-19T05:37:32.299Z,94827.00
2023-06-19T05:39:35.616Z,94829.00
2023-06-19T05:40:35.789Z,94829.00
2023-06-19T05:41:35.997Z,94831.00
2023-06-19T05:42:36.130Z,94831.00
2023-06-19T05:43:36.427Z,94835.00
2023-06-19T05:44:36.583Z,94835.00
2023-06-19T05:45:36.814Z,94835.00
2023-06-19T05:46:36.965Z,94833.00
2023-06-19T05:47:37.161Z,94837.00
2023-06-19T05:48:37.242Z,94839.00
2023-06-19T05:49:37.601Z,94843.00
2023-06-19T05:50:37.716Z,94839.00
2023-06-19T05:51:37.925Z,94841.00
2023-06-19T05:52:38.122Z,94841.00
2023-06-19T05:53:38.304Z,94841.00
2023-06-19T05:54:38.434Z,94841.00
2023-06-19T05:55:38.647Z,94849.00
2023-06-19T05:56:38.764Z,94847.00
2023-06-19T05:57:38.907Z,94849.00
2023-06-19T05:58:39.194Z,94849.00
2023-06-19T05:59:39.292Z,94849.00
2023-06-19T06:00:39.471Z,94851.00
2023-06-19T06:01:39.759Z,94851.00
2023-06-19T06:02:39.878Z,94853.00
2023-06-19T06:03:40.013Z,94853.00
2023-06-19T06:04:40.248Z,94857.00
2023-06-19T06:05:40.416Z,94855.00
2023-06-19T06:06:40.649Z,94855.00
2023-06-19T06:07:41.673Z,94857.00
2023-06-19T06:08:40.862Z,94857.00
2023-06-19T06:09:40.797Z,94859.00
2023-06-19T06:10:41.027Z,94859.00
2023-06-19T06:11:40.826Z,94855.00
2023-06-19T06:12:40.797Z,94861.00
2023-06-19T06:13:40.761Z,94861.00
2023-06-19T06:14:40.771Z,94861.00
2023-06-19T06:15:40.734Z,94863.00
2023-06-19T06:16:41.122Z,94863.00
2023-06-19T06:17:40.790Z,94865.00
2023-06-19T06:18:40.719Z,94865.00
2023-06-19T06:19:40.737Z,94865.00
2023-06-19T06:20:40.754Z,94867.00
2023-06-19T06:21:40.711Z,94870.00
2023-06-19T06:22:40.720Z,94872.00
2023-06-19T06:23:40.728Z,94872.00
2023-06-19T06:24:40.740Z,94869.00
2023-06-19T06:25:40.674Z,94870.00
2023-06-19T06:26:40.648Z,94870.00
2023-06-19T06:27:40.650Z,94870.00
2023-06-19T06:28:40.796Z,94872.00
2023-06-19T06:29:40.665Z,94870.00
2023-06-19T06:30:40.648Z,94870.00
2023-06-19T06:31:40.753Z,94870.00
2023-06-19T06:32:40.647Z,94870.00
2023-06-19T06:33:40.646Z,94872.00
2023-06-19T06:34:40.630Z,94870.00
2023-06-19T06:35:40.632Z,94870.00
2023-06-19T06:36:49.347Z,94870.00
2023-06-19T06:37:41.664Z,94872.00
2023-06-19T06:38:40.614Z,94870.00
2023-06-19T06:39:40.616Z,94870.00
2023-06-19T06:40:40.566Z,94874.00
2023-06-19T06:41:40.603Z,94872.00
2023-06-19T06:42:40.551Z,94874.00
2023-06-19T06:43:40.599Z,94874.00
2023-06-19T06:44:40.577Z,94872.00
2023-06-19T06:45:40.631Z,94874.00
2023-06-19T06:46:40.543Z,94874.00
2023-06-19T06:47:40.591Z,94878.00
2023-06-19T06:48:40.568Z,94876.00
2023-06-19T06:49:40.544Z,94878.00
2023-06-19T06:50:40.498Z,94882.00
2023-06-19T06:51:40.505Z,94880.00
2023-06-19T06:52:40.490Z,94882.00
2023-06-19T06:53:40.491Z,94878.00
2023-06-19T06:54:40.487Z,94882.00
2023-06-19T06:55:40.539Z,94876.00
2023-06-19T06:56:40.543Z,94876.00
2023-06-19T06:57:40.538Z,94878.00
2023-06-19T06:58:40.537Z,94876.00
2023-06-19T06:59:40.537Z,94876.00
2023-06-19T07:00:40.578Z,94874.00
2023-06-19T07:01:40.800Z,94876.00
2023-06-19T07:02:40.609Z,94876.00
2023-06-19T07:03:40.588Z,94880.00
2023-06-19T07:04:40.595Z,94880.00
2023-06-19T07:05:40.652Z,94878.00
2023-06-19T07:06:40.642Z,94880.00
2023-06-19T07:07:40.761Z,94892.00
2023-06-19T07:08:40.772Z,94882.00
2023-06-19T07:09:40.772Z,94884.00
2023-06-19T07:10:40.817Z,94884.00
2023-06-19T07:11:40.975Z,94882.00
2023-06-19T07:12:40.848Z,94884.00
2023-06-19T07:13:40.896Z,94878.00
2023-06-19T07:14:40.955Z,94876.00
2023-06-19T07:15:41.058Z,94872.00
2023-06-19T07:16:41.022Z,94872.00
2023-06-19T07:17:41.076Z,94872.00
2023-06-19T07:18:41.073Z,94870.00
2023-06-19T07:19:41.112Z,94870.00
2023-06-19T07:20:41.196Z,94872.00
2023-06-19T07:21:41.210Z,94870.00
2023-06-19T07:22:42.116Z,94876.00
2023-06-19T07:23:41.284Z,94872.00
2023-06-19T07:24:41.299Z,94872.00
2023-06-19T07:25:41.371Z,94872.00
2023-06-19T07:26:41.408Z,94870.00
2023-06-19T07:27:41.404Z,94869.00
2023-06-19T07:28:41.467Z,94870.00
2023-06-19T07:29:41.501Z,94870.00
2023-06-19T07:30:41.552Z,94870.00
2023-06-19T07:31:41.636Z,94872.00
2023-06-19T07:32:41.645Z,94867.00
2023-06-19T07:33:41.672Z,94867.00
2023-06-19T07:34:41.660Z,94869.00
2023-06-19T07:35:41.696Z,94870.00
2023-06-19T07:36:41.774Z,94869.00
2023-06-19T07:37:41.805Z,94867.00
2023-06-19T07:38:41.838Z,94865.00
2023-06-19T07:39:41.865Z,94869.00
2023-06-19T07:40:41.938Z,94865.00
2023-06-19T07:41:42.046Z,94865.00
2023-06-19T07:42:44.319Z,94863.00
2023-06-19T07:43:41.992Z,94865.00
2023-06-19T07:44:41.953Z,94859.00
2023-06-19T07:45:41.973Z,94861.00
2023-06-19T07:46:41.977Z,94857.00
2023-06-19T07:47:41.989Z,94857.00
2023-06-19T07:48:41.928Z,94855.00
2023-06-19T07:49:41.937Z,94851.00
2023-06-19T07:50:41.904Z,94851.00
2023-06-19T07:51:41.900Z,94853.00
2023-06-19T07:52:41.926Z,94849.00
2023-06-19T07:53:41.926Z,94849.00
2023-06-19T07:54:41.891Z,94847.00
2023-06-19T07:55:41.906Z,94847.00
2023-06-19T07:56:41.876Z,94845.00
2023-06-19T07:57:41.887Z,94847.00
2023-06-19T07:58:41.848Z,94845.00
2023-06-19T07:59:41.884Z,94845.00
2023-06-19T08:00:41.878Z,94847.00
2023-06-19T08:01:41.842Z,94847.00
2023-06-19T08:02:41.868Z,94845.00
2023-06-19T08:03:41.928Z,94845.00
2023-06-19T08:04:41.939Z,94847.00
2023-06-19T08:05:41.847Z,94845.00
2023-06-19T08:06:42.045Z,94845.00
2023-06-19T08:07:42.639Z,94843.00
2023-06-19T08:08:41.792Z,94843.00
2023-06-19T08:09:41.796Z,94841.00
2023-06-19T08:10:41.951Z,94841.00
2023-06-19T08:11:41.836Z,94839.00
2023-06-19T08:12:41.771Z,94839.00
2023-06-19T08:13:41.752Z,94837.00
2023-06-19T08:14:41.764Z,94835.00
2023-06-19T08:15:41.840Z,94835.00
2023-06-19T08:16:41.727Z,94835.00
2023-06-19T08:17:41.736Z,94833.00
2023-06-19T08:18:41.697Z,94831.00
2023-06-19T08:19:41.716Z,94831.00
2023-06-19T08:20:41.720Z,94827.00
2023-06-19T08:21:41.755Z,94825.00
2023-06-19T08:22:41.702Z,94823.00
2023-06-19T08:23:41.727Z,94821.00
2023-06-19T08:24:41.735Z,94819.00
2023-06-19T08:25:41.668Z,94819.00
2023-06-19T08:26:41.681Z,94817.00
2023-06-19T08:27:41.674Z,94815.00
2023-06-19T08:28:41.657Z,94814.00
2023-06-19T08:29:41.645Z,94812.00
2023-06-19T08:30:41.654Z,94814.00
2023-06-19T08:31:41.651Z,94812.00
2023-06-19T08:32:41.673Z,94812.00
2023-06-19T08:33:41.691Z,94810.00
2023-06-19T08:34:41.654Z,94808.00
2023-06-19T08:35:41.632Z,94808.00
2023-06-19T08:36:41.608Z,94806.00
2023-06-19T08:37:41.628Z,94804.00
2023-06-19T08:38:41.606Z,94804.00
2023-06-19T08:39:41.606Z,94804.00
2023-06-19T08:40:41.615Z,94800.00
2023-06-19T08:41:41.574Z,94802.00
2023-06-19T08:42:41.622Z,94798.00
2023-06-19T08:43:41.638Z,94800.00
2023-06-19T08:44:41.640Z,94798.00
2023-06-19T08:45:41.696Z,94796.00
2023-06-19T08:46:41.750Z,94796.00
2023-06-19T08:47:41.780Z,94794.00
2023-06-19T08:48:41.795Z,94800.00
2023-06-19T08:49:41.789Z,94800.00
2023-06-19T08:50:41.797Z,94794.00
2023-06-19T08:51:41.861Z,94796.00
2023-06-19T08:52:41.866Z,94796.00
2023-06-19T08:53:41.920Z,94796.00
2023-06-19T08:54:41.868Z,94796.00
2023-06-19T08:55:41.940Z,94796.00
2023-06-19T08:56:41.954Z,94794.00
2023-06-19T08:57:41.984Z,94794.00
2023-06-19T08:58:41.998Z,94794.00
2023-06-19T08:59:41.999Z,94794.00
2023-06-19T09:00:42.006Z,94790.00
2023-06-19T09:01:42.182Z,94790.00
2023-06-19T09:02:42.225Z,94790.00
2023-06-19T09:03:42.318Z,94786.00
2023-06-19T09:04:42.129Z,94784.00
2023-06-19T09:05:42.256Z,94782.00
2023-06-19T09:06:42.208Z,94780.00
2023-06-19T09:07:42.216Z,94778.00
2023-06-19T09:08:42.272Z,94778.00
2023-06-19T09:09:42.244Z,94778.00
2023-06-19T09:10:42.280Z,94778.00
2023-06-19T09:11:42.482Z,94776.00
2023-06-19T09:12:42.279Z,94774.00
2023-06-19T09:13:42.368Z,94776.00
2023-06-19T09:14:42.382Z,94778.00
2023-06-19T09:15:42.388Z,94780.00
2023-06-19T09:16:42.436Z,94778.00
2023-06-19T09:17:42.453Z,94776.00
2023-06-19T09:18:42.522Z,94774.00
2023-06-19T09:19:42.536Z,94774.00
2023-06-19T09:20:42.498Z,94772.00
2023-06-19T09:21:42.493Z,94768.00
2023-06-19T09:22:42.524Z,94768.00
2023-06-19T09:23:42.556Z,94765.00
2023-06-19T09:24:42.779Z,94767.00
2023-06-19T09:25:42.595Z,94765.00
2023-06-19T09:26:42.610Z,94763.00
2023-06-19T09:27:42.721Z,94759.00
2023-06-19T09:28:42.623Z,94761.00
2023-06-19T09:29:42.675Z,94757.00
2023-06-19T09:30:42.678Z,94759.00
2023-06-19T09:31:42.694Z,94757.00
2023-06-19T09:32:42.805Z,94755.00
2023-06-19T09:33:42.807Z,94757.00
2023-06-19T09:34:42.750Z,94755.00
2023-06-19T09:35:43.642Z,94755.00
2023-06-19T09:36:42.800Z,94755.00
2023-06-19T09:37:42.862Z,94751.00
2023-06-19T09:38:42.871Z,94751.00
2023-06-19T09:39:42.877Z,94749.00
2023-06-19T09:40:42.895Z,94747.00
2023-06-19T09:41:42.996Z,94745.00
2023-06-19T09:42:42.977Z,94747.00
2023-06-19T09:43:42.985Z,94743.00
2023-06-19T09:44:46.168Z,94745.00
2023-06-19T09:45:43.003Z,94745.00
2023-06-19T09:46:43.036Z,94747.00
2023-06-19T09:47:43.059Z,94745.00
2023-06-19T09:48:42.936Z,94745.00
2023-06-19T09:49:42.961Z,94741.00
2023-06-19T09:50:42.996Z,94741.00
2023-06-19T09:51:42.934Z,94737.00
2023-06-19T09:52:42.959Z,94741.00
2023-06-19T09:53:42.951Z,94735.00
2023-06-19T09:54:42.880Z,94737.00
2023-06-19T09:55:42.904Z,94735.00
2023-06-19T09:56:42.891Z,94735.00
2023-06-19T09:57:42.865Z,94735.00
2023-06-19T09:58:42.872Z,94735.00
2023-06-19T09:59:42.915Z,94733.00
2023-06-19T10:00:42.889Z,94729.00
2023-06-19T10:01:42.843Z,94729.00
2023-06-19T10:02:42.961Z,94731.00
2023-06-19T10:03:42.883Z,94737.00
2023-06-19T10:04:42.865Z,94733.00
2023-06-19T10:05:42.823Z,94729.00
2023-06-19T10:06:42.856Z,94731.00
2023-06-19T10:07:42.782Z,94727.00
2023-06-19T10:08:43.659Z,94727.00
2023-06-19T10:09:42.794Z,94725.00
2023-06-19T10:10:42.803Z,94727.00
2023-06-19T10:11:42.807Z,94727.00
2023-06-19T10:12:42.780Z,94725.00
2023-06-19T10:13:42.781Z,94723.00
2023-06-19T10:14:42.802Z,94721.00
2023-06-19T10:15:42.808Z,94720.00
2023-06-19T10:16:43.724Z,94718.00
2023-06-19T10:17:42.786Z,94718.00
2023-06-19T10:18:42.746Z,94720.00
2023-06-19T10:19:42.750Z,94716.00
2023-06-19T10:20:46.308Z,94718.00
2023-06-19T10:21:42.725Z,94716.00
2023-06-19T10:22:42.728Z,94716.00
2023-06-19T10:23:42.673Z,94712.00
2023-06-19T10:24:42.829Z,94714.00
2023-06-19T10:25:42.775Z,94710.00
2023-06-19T10:26:42.703Z,94708.00
2023-06-19T10:27:44.370Z,94706.00
2023-06-19T10:28:42.680Z,94706.00
2023-06-19T10:29:47.598Z,94708.00
2023-06-19T10:30:43.764Z,94706.00
2023-06-19T10:31:42.653Z,94706.00
2023-06-19T10:32:42.655Z,94704.00
2023-06-19T10:33:42.657Z,94700.00
2023-06-19T10:34:42.828Z,94704.00
2023-06-19T10:35:42.638Z,94698.00
2023-06-19T10:36:42.631Z,94698.00
2023-06-19T10:37:42.627Z,94698.00
2023-06-19T10:38:42.712Z,94698.00
2023-06-19T10:39:42.583Z,94698.00
2023-06-19T10:40:42.605Z,94696.00
2023-06-19T10:41:42.611Z,94694.00
2023-06-19T10:42:42.573Z,94692.00
2023-06-19T10:43:42.592Z,94696.00
2023-06-19T10:44:42.637Z,94694.00
2023-06-19T10:45:42.630Z,94692.00
2023-06-19T10:46:42.530Z,94688.00
2023-06-19T10:47:42.635Z,94690.00
2023-06-19T10:48:42.498Z,94684.00
2023-06-19T10:49:42.522Z,94684.00
2023-06-19T10:50:42.556Z,94682.00
2023-06-19T10:51:42.530Z,94686.00
2023-06-19T10:52:42.544Z,94682.00
2023-06-19T10:53:42.542Z,94678.00
2023-06-19T10:54:42.493Z,94676.00
2023-06-19T10:55:42.513Z,94672.00
2023-06-19T10:56:42.501Z,94676.00
2023-06-19T10:57:42.471Z,94670.00
2023-06-19T10:58:42.488Z,94669.00
2023-06-19T10:59:42.482Z,94670.00
2023-06-19T11:00:42.589Z,94670.00
2023-06-19T11:01:42.506Z,94667.00
2023-06-19T11:02:42.494Z,94667.00
2023-06-19T11:03:42.587Z,94659.00
2023-06-19T11:04:42.457Z,94659.00
2023-06-19T11:05:42.374Z,94659.00
2023-06-19T11:06:42.435Z,94651.00
2023-06-19T11:07:42.429Z,94655.00
2023-06-19T11:08:42.389Z,94653.00
2023-06-19T11:09:44.815Z,94651.00
2023-06-19T11:10:42.402Z,94651.00
2023-06-19T11:11:42.475Z,94651.00
2023-06-19T11:12:43.219Z,94649.00
2023-06-19T11:13:42.381Z,94645.00
2023-06-19T11:14:42.376Z,94641.00
2023-06-19T11:15:42.351Z,94637.00
2023-06-19T11:16:42.405Z,94637.00
2023-06-19T11:17:42.362Z,94627.00
2023-06-19T11:18:42.300Z,94627.00
2023-06-19T11:19:42.424Z,94625.00
2023-06-19T11:20:42.336Z,94623.00
2023-06-19T11:21:42.332Z,94621.00
2023-06-19T11:22:42.352Z,94621.00
2023-06-19T11:23:42.306Z,94620.00
2023-06-19T11:24:42.380Z,94620.00
2023-06-19T11:25:42.399Z,94618.00
2023-06-19T11:26:42.283Z,94612.00
2023-06-19T11:27:42.286Z,94616.00
2023-06-19T11:28:42.283Z,94616.00
2023-06-19T11:29:42.279Z,94614.00
2023-06-19T11:30:42.299Z,94610.00
2023-06-19T11:31:42.306Z,94614.00
2023-06-19T11:32:42.467Z,94610.00
2023-06-19T11:33:42.193Z,94606.00
2023-06-19T11:34:42.222Z,94608.00
2023-06-19T11:35:42.212Z,94606.00
2023-06-19T11:36:42.283Z,94606.00
2023-06-19T11:37:42.236Z,94606.00
2023-06-19T11:38:42.242Z,94606.00
2023-06-19T11:39:42.201Z,94606.00
2023-06-19T11:40:42.202Z,94606.00
2023-06-19T11:41:42.167Z,94602.00
2023-06-19T11:42:42.179Z,94604.00
2023-06-19T11:43:42.165Z,94602.00
2023-06-19T11:44:42.173Z,94598.00
2023-06-19T11:45:42.215Z,94596.00